createdAt,value
2018-11-11T00:00:38.606Z,99568.92
2018-11-11T00:01:42.042Z,99575.78
2018-11-11T00:02:45.486Z,99570.86
2018-11-11T00:03:48.928Z,99563.73
2018-11-11T00:04:52.333Z,99567.31
2018-11-11T00:05:55.776Z,99570.86
2018-11-11T00:06:59.199Z,99571.66
2018-11-11T00:08:02.673Z,99577.95
2018-11-11T00:09:07.982Z,99572.69
2018-11-11T00:10:11.424Z,99571.32
2018-11-11T00:11:14.864Z,99572.38
2018-11-11T00:12:18.273Z,99569.06
2018-11-11T00:13:21.674Z,99572.61
2018-11-11T00:14:25.079Z,99570.89
2018-11-11T00:15:28.519Z,99568.94
2018-11-11T00:16:31.936Z,99568.94
2018-11-11T00:17:35.352Z,99564.82
2018-11-11T00:18:38.820Z,99567.22
2018-11-11T00:19:42.280Z,99560.58
2018-11-11T00:20:45.673Z,99561.16
2018-11-11T00:21:49.315Z,99558.75
2018-11-11T00:22:52.660Z,99562.88
2018-11-11T00:23:56.234Z,99564.25
2018-11-11T00:24:59.673Z,99563.67
2018-11-11T00:26:03.090Z,99557.61
2018-11-11T00:27:06.565Z,99558.98
2018-11-11T00:28:10.125Z,99558.41
2018-11-11T00:29:13.527Z,99553.48
2018-11-11T00:30:18.110Z,99560.35
2018-11-11T00:31:21.659Z,99556.01
2018-11-11T00:32:25.069Z,99561.73
2018-11-11T00:33:28.493Z,99558.75
2018-11-11T00:34:32.013Z,99563.10
2018-11-11T00:35:35.489Z,99557.38
2018-11-11T00:36:38.960Z,99568.37
2018-11-11T00:37:42.417Z,99569.28
2018-11-11T00:38:45.801Z,99564.36
2018-11-11T00:39:49.194Z,99567.11
2018-11-11T00:40:52.627Z,99566.31
2018-11-11T00:41:56.199Z,99564.94
2018-11-11T00:42:59.618Z,99562.19
2018-11-11T00:44:03.260Z,99564.14
2018-11-11T00:45:07.833Z,99558.64
2018-11-11T00:46:11.391Z,99563.34
2018-11-11T00:47:14.959Z,99570.20
2018-11-11T00:48:18.393Z,99575.44
2018-11-11T00:49:21.864Z,99573.52
2018-11-11T00:50:25.382Z,99567.55
2018-11-11T00:51:28.839Z,99576.59
2018-11-11T00:52:32.237Z,99575.55
2018-11-11T00:53:35.708Z,99582.96
2018-11-11T00:54:39.461Z,99578.30
2018-11-11T00:55:42.893Z,99581.36
2018-11-11T00:56:46.309Z,99579.77
2018-11-11T00:57:49.724Z,99579.98
2018-11-11T00:58:53.156Z,99582.51
2018-11-11T00:59:56.521Z,99586.62
2018-11-11T01:00:59.985Z,99588.00
2018-11-11T01:02:03.396Z,99585.02
2018-11-11T01:03:06.886Z,99587.20
2018-11-11T01:04:10.325Z,99597.38
2018-11-11T01:05:14.260Z,99602.88
2018-11-11T01:06:17.686Z,99599.09
2018-11-11T01:07:21.156Z,99604.81
2018-11-11T01:08:24.623Z,99598.53
2018-11-11T01:09:28.041Z,99599.90
2018-11-11T01:10:31.410Z,99601.05
2018-11-11T01:11:34.838Z,99606.77
2018-11-11T01:12:38.299Z,99610.88
2018-11-11T01:13:41.860Z,99599.33
2018-11-11T01:14:45.291Z,99611.91
2018-11-11T01:15:48.685Z,99614.09
2018-11-11T01:16:52.318Z,99603.91
2018-11-11T01:17:55.750Z,99606.08
2018-11-11T01:18:59.213Z,99595.09
2018-11-11T01:20:02.629Z,99603.02
2018-11-11T01:21:06.040Z,99609.88
2018-11-11T01:22:09.448Z,99611.48
2018-11-11T01:23:12.863Z,99608.39
2018-11-11T01:24:16.390Z,99602.67
2018-11-11T01:25:19.842Z,99602.67
2018-11-11T01:26:23.260Z,99605.65
2018-11-11T01:27:26.716Z,99608.16
2018-11-11T01:28:30.138Z,99613.66
2018-11-11T01:29:33.538Z,99622.13
2018-11-11T01:30:36.930Z,99613.09
2018-11-11T01:31:40.336Z,99618.58
2018-11-11T01:32:43.750Z,99615.26
2018-11-11T01:33:47.175Z,99609.77
2018-11-11T01:34:50.693Z,99605.91
2018-11-11T01:35:54.121Z,99602.91
2018-11-11T01:36:57.524Z,99591.92
2018-11-11T01:38:01.031Z,99593.29
2018-11-11T01:39:05.324Z,99589.43
2018-11-11T01:40:09.118Z,99602.59
2018-11-11T01:41:12.562Z,99588.28
2018-11-11T01:42:15.938Z,99589.43
2018-11-11T01:43:19.335Z,99596.52
2018-11-11T01:44:22.725Z,99589.66
2018-11-11T01:45:26.124Z,99586.91
2018-11-11T01:46:29.517Z,99591.60
2018-11-11T01:47:32.872Z,99593.20
2018-11-11T01:48:36.337Z,99595.15
2018-11-11T01:49:39.924Z,99584.16
2018-11-11T01:50:43.332Z,99594.80
2018-11-11T01:51:46.694Z,99589.88
2018-11-11T01:52:50.078Z,99592.62
2018-11-11T01:53:53.485Z,99586.91
2018-11-11T01:54:56.928Z,99589.88
2018-11-11T01:56:00.365Z,99584.39
2018-11-11T01:57:03.781Z,99591.60
2018-11-11T01:58:07.175Z,99595.49
2018-11-11T01:59:10.556Z,99598.78
2018-11-11T02:00:16.907Z,99598.78
2018-11-11T02:01:20.316Z,99592.48
2018-11-11T02:02:23.712Z,99597.18
2018-11-11T02:03:27.124Z,99595.00
2018-11-11T02:04:30.584Z,99598.90
2018-11-11T02:05:33.950Z,99594.78
2018-11-11T02:06:37.410Z,99598.90
2018-11-11T02:07:41.815Z,99592.83
2018-11-11T02:08:45.234Z,99592.83
2018-11-11T02:09:48.659Z,99596.70
2018-11-11T02:10:52.083Z,99598.06
2018-11-11T02:11:55.567Z,99592.83
2018-11-11T02:12:58.966Z,99598.33
2018-11-11T02:14:02.409Z,99594.78
2018-11-11T02:15:07.025Z,99595.58
2018-11-11T02:16:10.425Z,99589.52
2018-11-11T02:17:13.943Z,99586.20
2018-11-11T02:18:17.336Z,99583.45
2018-11-11T02:19:20.775Z,99582.08
2018-11-11T02:20:24.316Z,99585.62
2018-11-11T02:21:27.665Z,99578.19
2018-11-11T02:22:31.165Z,99581.19
2018-11-11T02:23:34.585Z,99591.60
2018-11-11T02:24:37.985Z,99588.28
2018-11-11T02:25:41.663Z,99593.77
2018-11-11T02:26:45.051Z,99598.70
2018-11-11T02:27:48.430Z,99589.08
2018-11-11T02:28:51.891Z,99594.00
2018-11-11T02:29:55.266Z,99598.35
2018-11-11T02:30:58.728Z,99590.69
2018-11-11T02:32:02.139Z,99598.58
2018-11-11T02:33:05.877Z,99594.00
2018-11-11T02:34:10.808Z,99600.52
2018-11-11T02:35:14.489Z,99610.14
2018-11-11T02:36:17.908Z,99605.45
2018-11-11T02:37:21.348Z,99602.47
2018-11-11T02:38:24.764Z,99599.73
2018-11-11T02:39:28.153Z,99598.13
2018-11-11T02:40:31.565Z,99596.98
2018-11-11T02:41:34.992Z,99603.84
2018-11-11T02:42:38.414Z,99605.79
2018-11-11T02:43:41.918Z,99599.50
2018-11-11T02:44:45.333Z,99602.24
2018-11-11T02:45:48.728Z,99603.39
2018-11-11T02:46:52.288Z,99600.88
2018-11-11T02:47:55.717Z,99593.77
2018-11-11T02:48:59.340Z,99587.14
2018-11-11T02:50:02.779Z,99586.69
2018-11-11T02:51:06.220Z,99591.03
2018-11-11T02:52:09.637Z,99592.62
2018-11-11T02:53:13.036Z,99588.73
2018-11-11T02:54:16.966Z,99586.80
2018-11-11T02:55:20.376Z,99590.56
2018-11-11T02:56:23.816Z,99593.31
2018-11-11T02:57:27.299Z,99591.94
2018-11-11T02:58:30.699Z,99593.89
2018-11-11T02:59:34.088Z,99600.18
2018-11-11T03:00:37.558Z,99600.18
2018-11-11T03:01:40.942Z,99595.83
2018-11-11T03:02:44.990Z,99593.31
2018-11-11T03:03:48.369Z,99583.47
2018-11-11T03:04:51.752Z,99587.59
2018-11-11T03:05:55.173Z,99588.97
2018-11-11T03:06:58.564Z,99587.36
2018-11-11T03:08:01.941Z,99594.80
2018-11-11T03:09:08.989Z,99589.54
2018-11-11T03:10:13.344Z,99598.13
2018-11-11T03:11:16.753Z,99587.14
2018-11-11T03:12:20.154Z,99585.77
2018-11-11T03:13:23.566Z,99581.99
2018-11-11T03:14:26.945Z,99585.53
2018-11-11T03:15:30.333Z,99591.03
2018-11-11T03:16:33.747Z,99589.43
2018-11-11T03:17:37.347Z,99577.07
2018-11-11T03:18:40.778Z,99583.94
2018-11-11T03:19:44.196Z,99586.69
2018-11-11T03:20:47.592Z,99582.56
2018-11-11T03:21:51.006Z,99584.73
2018-11-11T03:22:54.400Z,99579.81
2018-11-11T03:23:57.791Z,99579.02
2018-11-11T03:25:01.212Z,99577.64
2018-11-11T03:26:04.655Z,99580.13
2018-11-11T03:27:08.083Z,99581.50
2018-11-11T03:28:11.553Z,99584.02
2018-11-11T03:29:14.964Z,99575.78
2018-11-11T03:30:18.801Z,99584.25
2018-11-11T03:31:22.490Z,99586.20
2018-11-11T03:32:25.927Z,99588.94
2018-11-11T03:33:29.322Z,99588.94
2018-11-11T03:34:32.763Z,99595.81
2018-11-11T03:35:36.194Z,99589.17
2018-11-11T03:36:39.617Z,99593.55
2018-11-11T03:37:43.690Z,99588.63
2018-11-11T03:38:47.112Z,99592.17
2018-11-11T03:39:50.531Z,99583.94
2018-11-11T03:40:53.982Z,99583.94
2018-11-11T03:41:57.414Z,99583.59
2018-11-11T03:43:00.793Z,99589.88
2018-11-11T03:44:04.653Z,99578.33
2018-11-11T03:45:10.521Z,99577.75
2018-11-11T03:46:13.946Z,99576.38
2018-11-11T03:47:17.343Z,99573.86
2018-11-11T03:48:20.747Z,99566.77
2018-11-11T03:49:24.125Z,99573.06
2018-11-11T03:50:27.532Z,99575.00
2018-11-11T03:51:30.957Z,99578.90
2018-11-11T03:52:34.358Z,99574.78
2018-11-11T03:53:38.072Z,99577.52
2018-11-11T03:54:43.214Z,99577.07
2018-11-11T03:55:46.626Z,99576.81
2018-11-11T03:56:50.019Z,99583.45
2018-11-11T03:57:53.450Z,99582.08
2018-11-11T03:58:56.918Z,99584.82
2018-11-11T04:00:00.244Z,99588.72
2018-11-11T04:01:03.676Z,99578.30
2018-11-11T04:02:07.101Z,99582.96
2018-11-11T04:03:10.531Z,99583.80
2018-11-11T04:04:14.408Z,99584.91
2018-11-11T04:05:18.400Z,99586.62
2018-11-11T04:06:21.847Z,99585.25
2018-11-11T04:07:25.222Z,99585.02
2018-11-11T04:08:28.599Z,99587.77
2018-11-11T04:09:31.998Z,99586.40
2018-11-11T04:10:35.483Z,99590.74
2018-11-11T04:11:39.142Z,99588.34
2018-11-11T04:12:42.798Z,99589.14
2018-11-11T04:13:46.196Z,99589.14
2018-11-11T04:14:49.605Z,99587.55
2018-11-11T04:15:52.953Z,99581.25
2018-11-11T04:16:56.380Z,99583.20
2018-11-11T04:17:59.768Z,99580.45
2018-11-11T04:19:03.142Z,99584.11
2018-11-11T04:20:08.260Z,99582.73
2018-11-11T04:21:11.713Z,99575.64
2018-11-11T04:22:20.149Z,99577.02
2018-11-11T04:23:23.530Z,99583.88
2018-11-11T04:24:26.914Z,99585.83
2018-11-11T04:25:30.358Z,99586.97
2018-11-11T04:26:33.792Z,99593.84
2018-11-11T04:27:37.202Z,99599.33
2018-11-11T04:28:40.619Z,99601.27
2018-11-11T04:29:44.070Z,99598.53
2018-11-11T04:30:47.496Z,99599.91
2018-11-11T04:31:50.933Z,99604.02
2018-11-11T04:32:54.366Z,99603.79
2018-11-11T04:33:57.939Z,99605.63
2018-11-11T04:35:01.403Z,99601.27
2018-11-11T04:36:05.097Z,99605.97
2018-11-11T04:37:09.003Z,99596.36
2018-11-11T04:38:12.457Z,99591.66
2018-11-11T04:39:15.945Z,99588.69
2018-11-11T04:40:19.285Z,99595.55
2018-11-11T04:41:22.672Z,99595.55
2018-11-11T04:42:26.161Z,99600.47
2018-11-11T04:43:29.599Z,99602.65
2018-11-11T04:44:33.009Z,99598.53
2018-11-11T04:45:36.394Z,99601.27
2018-11-11T04:46:39.863Z,99593.84
2018-11-11T04:47:43.795Z,99587.31
2018-11-11T04:48:47.231Z,99597.16
2018-11-11T04:49:50.682Z,99599.10
2018-11-11T04:50:54.069Z,99608.94
2018-11-11T04:51:57.468Z,99601.27
2018-11-11T04:53:00.862Z,99613.06
2018-11-11T04:54:04.344Z,99610.89
2018-11-11T04:55:08.177Z,99610.08
2018-11-11T04:56:11.626Z,99609.85
2018-11-11T04:57:14.978Z,99618.09
2018-11-11T04:58:18.419Z,99612.59
2018-11-11T04:59:21.848Z,99618.89
2018-11-11T05:00:25.266Z,99613.97
2018-11-11T05:01:28.762Z,99614.31
2018-11-11T05:02:32.058Z,99611.80
2018-11-11T05:03:35.438Z,99618.44
2018-11-11T05:04:38.963Z,99608.83
2018-11-11T05:05:42.304Z,99610.20
2018-11-11T05:06:45.734Z,99612.37
2018-11-11T05:07:49.103Z,99608.34
2018-11-11T05:08:52.559Z,99609.97
2018-11-11T05:09:56.138Z,99610.54
2018-11-11T05:10:59.571Z,99609.97
2018-11-11T05:12:03.049Z,99607.45
2018-11-11T05:13:06.406Z,99609.05
2018-11-11T05:14:10.461Z,99617.06
2018-11-11T05:15:14.486Z,99621.41
2018-11-11T05:16:17.876Z,99620.03
2018-11-11T05:17:21.288Z,99616.48
2018-11-11T05:18:24.710Z,99617.06
2018-11-11T05:19:28.131Z,99616.72
2018-11-11T05:20:31.542Z,99613.97
2018-11-11T05:21:34.990Z,99608.48
2018-11-11T05:22:38.378Z,99610.66
2018-11-11T05:23:41.829Z,99610.42
2018-11-11T05:24:45.211Z,99609.28
2018-11-11T05:25:48.611Z,99613.63
2018-11-11T05:26:52.013Z,99616.95
2018-11-11T05:27:55.465Z,99620.50
2018-11-11T05:28:58.849Z,99612.48
2018-11-11T05:30:02.289Z,99612.26
2018-11-11T05:31:06.149Z,99609.28
2018-11-11T05:32:09.589Z,99613.97
2018-11-11T05:33:12.957Z,99616.14
2018-11-11T05:34:16.431Z,99609.28
2018-11-11T05:35:19.883Z,99599.91
2018-11-11T05:36:23.285Z,99604.82
2018-11-11T05:37:26.667Z,99604.02
2018-11-11T05:38:30.134Z,99603.22
2018-11-11T05:39:33.535Z,99605.39
2018-11-11T05:40:36.973Z,99605.39
2018-11-11T05:41:40.540Z,99613.63
2018-11-11T05:42:44.568Z,99612.59
2018-11-11T05:43:47.966Z,99616.14
2018-11-11T05:44:51.432Z,99617.52
2018-11-11T05:45:54.896Z,99621.64
2018-11-11T05:46:58.261Z,99620.03
2018-11-11T05:48:01.687Z,99615.92
2018-11-11T05:49:05.437Z,99620.61
2018-11-11T05:50:10.784Z,99629.19
2018-11-11T05:51:14.212Z,99627.02
2018-11-11T05:52:17.581Z,99622.89
2018-11-11T05:53:20.992Z,99623.92
2018-11-11T05:54:24.421Z,99623.44
2018-11-11T05:55:27.836Z,99620.15
2018-11-11T05:56:31.280Z,99622.89
2018-11-11T05:57:34.709Z,99619.09
2018-11-11T05:58:38.208Z,99619.89
2018-11-11T05:59:41.615Z,99627.33
2018-11-11T06:00:45.037Z,99630.07
2018-11-11T06:01:48.501Z,99632.81
2018-11-11T06:02:51.922Z,99629.84
2018-11-11T06:03:55.302Z,99622.64
2018-11-11T06:04:58.716Z,99633.39
2018-11-11T06:06:02.139Z,99631.44
2018-11-11T06:07:05.965Z,99627.90
2018-11-11T06:08:09.528Z,99631.78
2018-11-11T06:09:12.934Z,99622.98
2018-11-11T06:10:16.622Z,99628.47
2018-11-11T06:11:20.111Z,99627.67
2018-11-11T06:12:23.508Z,99632.93
2018-11-11T06:13:26.932Z,99620.92
2018-11-11T06:14:30.432Z,99625.84
2018-11-11T06:15:33.794Z,99625.03
2018-11-11T06:16:37.295Z,99630.88
2018-11-11T06:17:40.723Z,99626.41
2018-11-11T06:18:44.166Z,99619.55
2018-11-11T06:19:47.551Z,99622.06
2018-11-11T06:20:51.000Z,99627.20
2018-11-11T06:21:54.804Z,99624.47
2018-11-11T06:22:58.212Z,99618.97
2018-11-11T06:24:01.621Z,99618.97
2018-11-11T06:25:05.219Z,99622.75
2018-11-11T06:26:09.043Z,99617.48
2018-11-11T06:27:12.488Z,99612.37
2018-11-11T06:28:15.930Z,99618.32
2018-11-11T06:29:19.416Z,99620.72
2018-11-11T06:30:22.820Z,99613.63
2018-11-11T06:31:26.292Z,99621.52
2018-11-11T06:32:29.696Z,99617.17
2018-11-11T06:33:33.106Z,99623.47
2018-11-11T06:34:36.701Z,99625.64
2018-11-11T06:35:40.084Z,99625.98
2018-11-11T06:36:43.546Z,99623.02
2018-11-11T06:37:46.924Z,99626.90
2018-11-11T06:38:50.316Z,99622.78
2018-11-11T06:39:53.713Z,99631.02
2018-11-11T06:40:57.088Z,99630.56
2018-11-11T06:42:00.480Z,99631.94
2018-11-11T06:43:03.948Z,99633.05
2018-11-11T06:44:07.567Z,99634.42
2018-11-11T06:45:12.717Z,99635.56
2018-11-11T06:46:16.120Z,99635.33
2018-11-11T06:47:19.597Z,99639.22
2018-11-11T06:48:23.012Z,99640.36
2018-11-11T06:49:26.452Z,99637.05
2018-11-11T06:50:29.869Z,99647.80
2018-11-11T06:51:33.412Z,99641.51
2018-11-11T06:52:36.811Z,99649.97
2018-11-11T06:53:40.247Z,99651.69
2018-11-11T06:54:43.794Z,99652.48
2018-11-11T06:55:47.196Z,99649.52
2018-11-11T06:56:50.688Z,99651.69
2018-11-11T06:57:54.113Z,99648.14
2018-11-11T06:58:57.535Z,99662.67
2018-11-11T07:00:00.960Z,99655.58
2018-11-11T07:01:04.665Z,99656.15
2018-11-11T07:02:07.737Z,99650.66
2018-11-11T07:03:22.508Z,99654.77
2018-11-11T07:04:25.941Z,99658.44
2018-11-11T07:05:29.360Z,99659.23
2018-11-11T07:06:33.208Z,99670.78
2018-11-11T07:07:37.017Z,99672.16
2018-11-11T07:08:40.444Z,99670.78
2018-11-11T07:09:43.856Z,99676.05
2018-11-11T07:10:47.293Z,99680.97
2018-11-11T07:11:50.678Z,99685.66
2018-11-11T07:12:54.071Z,99681.53
2018-11-11T07:13:57.472Z,99681.53
2018-11-11T07:15:00.929Z,99683.71
2018-11-11T07:16:04.325Z,99680.16
2018-11-11T07:17:07.921Z,99692.75
2018-11-11T07:18:11.364Z,99678.56
2018-11-11T07:19:15.196Z,99690.00
2018-11-11T07:20:18.592Z,99689.54
2018-11-11T07:21:21.986Z,99695.03
2018-11-11T07:22:25.450Z,99693.89
2018-11-11T07:23:29.010Z,99699.95
2018-11-11T07:24:32.381Z,99695.83
2018-11-11T07:25:35.852Z,99695.83
2018-11-11T07:26:39.293Z,99699.15
2018-11-11T07:27:42.702Z,99701.89
2018-11-11T07:28:46.086Z,99708.19
2018-11-11T07:29:49.519Z,99710.13
2018-11-11T07:30:52.920Z,99702.47
2018-11-11T07:31:56.375Z,99713.11
2018-11-11T07:32:59.726Z,99710.36
2018-11-11T07:34:03.138Z,99717.22
2018-11-11T07:35:08.418Z,99718.83
2018-11-11T07:36:12.053Z,99722.94
2018-11-11T07:37:15.433Z,99719.63
2018-11-11T07:38:18.873Z,99728.44
2018-11-11T07:39:22.259Z,99725.34
2018-11-11T07:40:25.641Z,99721.23
2018-11-11T07:41:29.011Z,99730.27
2018-11-11T07:42:32.485Z,99728.33
2018-11-11T07:43:36.196Z,99726.16
2018-11-11T07:44:39.617Z,99741.72
2018-11-11T07:45:43.114Z,99741.14
2018-11-11T07:46:46.520Z,99745.27
2018-11-11T07:47:49.965Z,99741.72
2018-11-11T07:48:53.360Z,99743.89
2018-11-11T07:49:56.764Z,99746.30
2018-11-11T07:51:00.186Z,99752.92
2018-11-11T07:52:03.671Z,99753.73
2018-11-11T07:53:07.110Z,99749.04
2018-11-11T07:54:10.714Z,99747.67
2018-11-11T07:55:14.242Z,99742.17
2018-11-11T07:56:17.628Z,99755.10
2018-11-11T07:57:21.012Z,99751.78
2018-11-11T07:58:24.497Z,99756.70
2018-11-11T07:59:27.931Z,99753.39
2018-11-11T08:00:31.320Z,99749.27
2018-11-11T08:01:34.807Z,99752.59
2018-11-11T08:02:38.241Z,99754.53
2018-11-11T08:03:41.817Z,99756.13
2018-11-11T08:04:45.259Z,99754.77
2018-11-11T08:05:48.732Z,99756.94
2018-11-11T08:06:52.168Z,99756.13
2018-11-11T08:07:55.568Z,99749.27
2018-11-11T08:08:58.992Z,99748.70
2018-11-11T08:10:02.414Z,99750.64
2018-11-11T08:11:17.057Z,99756.37
2018-11-11T08:12:20.412Z,99754.42
2018-11-11T08:13:23.909Z,99746.53
2018-11-11T08:14:27.854Z,99751.45
2018-11-11T08:15:31.260Z,99749.50
2018-11-11T08:16:34.679Z,99756.94
2018-11-11T08:17:38.073Z,99758.31
2018-11-11T08:18:41.526Z,99756.13
2018-11-11T08:19:45.093Z,99753.39
2018-11-11T08:20:48.468Z,99754.19
2018-11-11T08:21:52.036Z,99753.62
2018-11-11T08:22:55.456Z,99751.11
2018-11-11T08:23:58.872Z,99746.98
2018-11-11T08:25:02.320Z,99751.37
2018-11-11T08:26:05.966Z,99755.95
2018-11-11T08:27:09.372Z,99755.15
2018-11-11T08:28:12.781Z,99754.58
2018-11-11T08:29:16.184Z,99750.45
2018-11-11T08:30:19.583Z,99753.67
2018-11-11T08:31:22.970Z,99758.36
2018-11-11T08:32:26.374Z,99755.27
2018-11-11T08:33:29.743Z,99745.43
2018-11-11T08:34:33.167Z,99750.02
2018-11-11T08:35:36.637Z,99744.86
2018-11-11T08:36:40.072Z,99752.75
2018-11-11T08:37:43.486Z,99756.87
2018-11-11T08:38:46.863Z,99751.38
2018-11-11T08:39:50.280Z,99750.58
2018-11-11T08:40:53.708Z,99754.70
2018-11-11T08:41:57.111Z,99749.20
2018-11-11T08:43:00.492Z,99756.87
2018-11-11T08:44:03.962Z,99759.05
2018-11-11T08:45:09.697Z,99768.66
2018-11-11T08:46:13.152Z,99773.58
2018-11-11T08:47:16.586Z,99770.84
2018-11-11T08:48:20.098Z,99768.32
2018-11-11T08:49:23.476Z,99772.44
2018-11-11T08:50:26.921Z,99779.08
2018-11-11T08:51:30.338Z,99779.30
2018-11-11T08:52:33.760Z,99787.55
2018-11-11T08:53:37.151Z,99793.03
2018-11-11T08:54:40.621Z,99795.78
2018-11-11T08:55:44.065Z,99799.33
2018-11-11T08:56:47.470Z,99797.39
2018-11-11T08:57:51.047Z,99787.77
2018-11-11T08:58:54.672Z,99797.62
2018-11-11T08:59:58.113Z,99799.22
2018-11-11T09:01:01.655Z,99793.50
2018-11-11T09:02:05.306Z,99793.16
2018-11-11T09:03:08.770Z,99790.08
2018-11-11T09:04:12.165Z,99796.38
2018-11-11T09:05:15.619Z,99797.17
2018-11-11T09:06:19.020Z,99799.19
2018-11-11T09:07:22.662Z,99800.64
2018-11-11T09:08:26.199Z,99793.23
2018-11-11T09:09:29.640Z,99799.84
2018-11-11T09:10:33.037Z,99796.38
2018-11-11T09:11:36.724Z,99798.08
2018-11-11T09:12:40.171Z,99800.70
2018-11-11T09:13:43.677Z,99808.81
2018-11-11T09:14:47.075Z,99793.92
2018-11-11T09:15:50.515Z,99807.14
2018-11-11T09:16:53.922Z,99801.86
2018-11-11T09:17:57.485Z,99816.00
2018-11-11T09:19:01.262Z,99811.62
2018-11-11T09:20:06.343Z,99811.89
2018-11-11T09:21:11.508Z,99812.91
2018-11-11T09:22:15.145Z,99810.27
2018-11-11T09:23:21.322Z,99812.30
2018-11-11T09:24:25.512Z,99808.29
2018-11-11T09:25:29.418Z,99806.08
2018-11-11T09:26:32.869Z,99798.19
2018-11-11T09:27:36.855Z,99809.97
2018-11-11T09:28:40.386Z,99802.80
2018-11-11T09:29:44.364Z,99805.21
2018-11-11T09:30:47.652Z,99804.08
2018-11-11T09:31:52.742Z,99803.27
2018-11-11T09:32:56.257Z,99808.66
2018-11-11T09:34:00.521Z,99808.09
2018-11-11T09:35:04.076Z,99807.41
2018-11-11T09:36:08.197Z,99811.42
2018-11-11T09:37:12.061Z,99811.56
2018-11-11T09:38:15.980Z,99821.66
2018-11-11T09:39:19.391Z,99812.05
2018-11-11T09:40:23.565Z,99813.66
2018-11-11T09:41:27.218Z,99812.86
2018-11-11T09:42:32.302Z,99816.17
2018-11-11T09:43:36.024Z,99812.39
2018-11-11T09:44:40.012Z,99812.63
2018-11-11T09:45:44.084Z,99807.31
2018-11-11T09:46:48.517Z,99807.19
2018-11-11T09:47:52.009Z,99805.91
2018-11-11T09:48:55.471Z,99807.15
2018-11-11T09:49:59.303Z,99817.89
2018-11-11T09:51:04.347Z,99821.84
2018-11-11T09:52:07.825Z,99820.67
2018-11-11T09:53:11.300Z,99816.09
2018-11-11T09:54:15.571Z,99820.77
2018-11-11T09:55:20.891Z,99818.93
2018-11-11T09:56:25.185Z,99820.06
2018-11-11T09:57:29.550Z,99826.69
2018-11-11T09:58:34.558Z,99825.05
2018-11-11T09:59:38.148Z,99822.08
2018-11-11T10:00:42.707Z,99826.52
2018-11-11T10:01:46.556Z,99823.31
2018-11-11T10:03:02.235Z,99821.80
2018-11-11T10:04:41.194Z,99825.78
2018-11-11T10:06:50.926Z,99824.08
2018-11-11T10:08:00.915Z,99812.01
2018-11-11T10:09:09.757Z,99814.65
2018-11-11T10:11:22.322Z,99819.41
2018-11-11T10:12:35.905Z,99811.88
2018-11-11T10:13:50.410Z,99810.03
2018-11-11T10:15:06.128Z,99806.48
2018-11-11T10:16:21.003Z,99816.09
2018-11-11T10:17:32.859Z,99811.41
2018-11-11T10:18:38.672Z,99806.72
2018-11-11T10:19:52.104Z,99817.36
2018-11-11T10:21:02.245Z,99823.08
2018-11-11T10:22:11.123Z,99819.44
2018-11-11T10:24:18.516Z,99827.09
2018-11-11T10:25:29.685Z,99834.09
2018-11-11T10:26:37.532Z,99833.78
2018-11-11T10:27:46.216Z,99833.45
2018-11-11T10:28:54.655Z,99835.29
2018-11-11T10:30:08.108Z,99844.56
2018-11-11T10:31:18.167Z,99846.41
2018-11-11T10:33:50.131Z,99843.89
2018-11-11T10:35:02.090Z,99853.39
2018-11-11T10:36:29.187Z,99852.26
2018-11-11T10:38:44.079Z,99859.59
2018-11-11T10:39:55.725Z,99850.81
2018-11-11T10:41:12.107Z,99848.87
2018-11-11T10:42:25.601Z,99846.36
2018-11-11T10:43:34.958Z,99848.54
2018-11-11T10:45:15.658Z,99850.72
2018-11-11T10:46:38.929Z,99850.95
2018-11-11T10:48:00.087Z,99856.67
2018-11-11T10:49:04.985Z,99863.77
2018-11-11T10:50:12.355Z,99856.91
2018-11-11T10:51:17.874Z,99863.43
2018-11-11T10:52:21.792Z,99858.52
2018-11-11T10:53:26.138Z,99866.98
2018-11-11T10:54:30.674Z,99868.02
2018-11-11T10:55:35.042Z,99862.66
2018-11-11T10:56:39.658Z,99861.58
2018-11-11T10:57:43.182Z,99859.09
2018-11-11T10:58:47.412Z,99860.11
2018-11-11T10:59:51.628Z,99870.96
2018-11-11T11:01:01.252Z,99872.53
2018-11-11T11:02:10.442Z,99869.44
2018-11-11T11:03:19.516Z,99874.88
2018-11-11T11:04:23.935Z,99873.31
2018-11-11T11:05:27.898Z,99885.27
2018-11-11T11:06:37.058Z,99877.62
2018-11-11T11:07:40.575Z,99885.32
2018-11-11T11:08:49.228Z,99884.54
2018-11-11T11:09:52.850Z,99878.00
2018-11-11T11:10:57.201Z,99882.84
2018-11-11T11:12:00.989Z,99877.45
2018-11-11T11:13:04.604Z,99878.25
2018-11-11T11:14:08.074Z,99888.79
2018-11-11T11:15:11.781Z,99885.12
2018-11-11T11:16:15.325Z,99885.22
2018-11-11T11:17:18.829Z,99878.91
2018-11-11T11:18:22.289Z,99880.08
2018-11-11T11:19:25.724Z,99886.95
2018-11-11T11:20:29.171Z,99888.88
2018-11-11T11:21:32.683Z,99890.53
2018-11-11T11:22:37.259Z,99895.21
2018-11-11T11:23:40.787Z,99892.23
2018-11-11T11:24:44.305Z,99890.16
2018-11-11T11:25:47.952Z,99892.80
2018-11-11T11:26:51.333Z,99896.58
2018-11-11T11:27:54.753Z,99903.46
2018-11-11T11:28:58.248Z,99905.16
2018-11-11T11:30:01.871Z,99913.56
2018-11-11T11:31:06.082Z,99913.33
2018-11-11T11:32:09.843Z,99906.67
2018-11-11T11:33:13.377Z,99904.48
2018-11-11T11:34:16.965Z,99910.81
2018-11-11T11:35:20.521Z,99905.84
2018-11-11T11:36:23.955Z,99908.22
2018-11-11T11:37:27.385Z,99911.55
2018-11-11T11:38:30.900Z,99909.60
2018-11-11T11:39:34.394Z,99906.69
2018-11-11T11:40:38.607Z,99903.61
2018-11-11T11:41:42.085Z,99901.97
2018-11-11T11:42:47.303Z,99906.30
2018-11-11T11:43:50.736Z,99902.86
2018-11-11T11:44:55.012Z,99906.77
2018-11-11T11:46:01.598Z,99901.00
2018-11-11T11:47:06.660Z,99898.24
2018-11-11T11:48:11.025Z,99891.84
2018-11-11T11:49:14.533Z,99898.50
2018-11-11T11:50:18.746Z,99903.58
2018-11-11T11:51:23.102Z,99901.93
2018-11-11T11:52:26.811Z,99900.20
2018-11-11T11:53:33.066Z,99894.23
2018-11-11T11:54:37.725Z,99900.95
2018-11-11T11:55:41.291Z,99894.53
2018-11-11T11:56:45.046Z,99888.16
2018-11-11T11:57:59.479Z,99887.09
2018-11-11T11:59:03.691Z,99877.11
2018-11-11T12:00:09.814Z,99877.69
2018-11-11T12:01:13.849Z,99863.90
2018-11-11T12:02:17.433Z,99881.03
2018-11-11T12:03:21.811Z,99875.26
2018-11-11T12:04:27.691Z,99864.14
2018-11-11T12:05:32.691Z,99867.83
2018-11-11T12:06:36.330Z,99880.38
2018-11-11T12:07:40.411Z,99883.89
2018-11-11T12:08:44.916Z,99873.30
2018-11-11T12:09:48.962Z,99872.34
2018-11-11T12:10:52.616Z,99866.47
2018-11-11T12:11:56.109Z,99876.11
2018-11-11T12:13:00.479Z,99878.52
2018-11-11T12:14:09.103Z,99869.73
2018-11-11T12:15:16.656Z,99875.84
2018-11-11T12:16:22.834Z,99878.23
2018-11-11T12:17:26.310Z,99881.44
2018-11-11T12:18:32.987Z,99884.91
2018-11-11T12:19:36.809Z,99879.98
2018-11-11T12:20:40.775Z,99886.20
2018-11-11T12:21:47.229Z,99887.45
2018-11-11T12:22:50.772Z,99892.09
2018-11-11T12:23:58.434Z,99897.47
2018-11-11T12:25:03.052Z,99899.52
2018-11-11T12:26:07.315Z,99901.06
2018-11-11T12:27:11.825Z,99899.36
2018-11-11T12:28:16.535Z,99904.25
2018-11-11T12:29:20.344Z,99907.67
2018-11-11T12:30:28.679Z,99904.47
2018-11-11T12:31:33.020Z,99906.65
2018-11-11T12:32:36.741Z,99905.98
2018-11-11T12:33:41.141Z,99902.87
2018-11-11T12:34:46.957Z,99912.75
2018-11-11T12:35:51.859Z,99913.99
2018-11-11T12:36:57.602Z,99909.55
2018-11-11T12:38:01.742Z,99908.08
2018-11-11T12:39:13.282Z,99914.18
2018-11-11T12:40:20.218Z,99916.14